sensor_id;sensor_type;location;lat;lon;timestamp;pressure;altitude;pressure_sealevel;temperature;humidity
19827;BME280;10074;52.018;4.726;2023-03-16T00:00:34;46221.25;;;-144.79;100.00
19827;BME280;10074;52.018;4.726;2023-03-16T00:05:34;46199.19;;;-144.79;100.00
19827;BME280;10074;52.018;4.726;2023-03-16T00:10:34;46201.22;;;-144.79;100.00
19827;BME280;10074;52.018;4.726;2023-03-16T00:15:35;46211.22;;;-144.79;100.00
19827;BME280;10074;52.018;4.726;2023-03-16T00:20:36;46207.22;;;-144.79;100.00
19827;BME280;10074;52.018;4.726;2023-03-16T00:25:36;46209.22;;;-144.79;100.00
19827;BME280;10074;52.018;4.726;2023-03-16T00:30:37;46209.22;;;-144.79;100.00
19827;BME280;10074;52.018;4.726;2023-03-16T00:35:37;46203.22;;;-144.79;100.00
19827;BME280;10074;52.018;4.726;2023-03-16T00:40:37;46209.22;;;-144.79;100.00
19827;BME280;10074;52.018;4.726;2023-03-16T00:45:38;46203.22;;;-144.79;100.00
19827;BME280;10074;52.018;4.726;2023-03-16T00:50:38;46201.22;;;-144.79;100.00
19827;BME280;10074;52.018;4.726;2023-03-16T00:55:38;46197.19;;;-144.79;100.00
19827;BME280;10074;52.018;4.726;2023-03-16T01:00:39;46213.25;;;-144.79;100.00
19827;BME280;10074;52.018;4.726;2023-03-16T01:05:40;46217.25;;;-144.79;100.00
19827;BME280;10074;52.018;4.726;2023-03-16T01:10:41;46197.19;;;-144.79;100.00
19827;BME280;10074;52.018;4.726;2023-03-16T01:15:41;46219.25;;;-144.79;100.00
19827;BME280;10074;52.018;4.726;2023-03-16T01:20:45;46213.25;;;-144.79;100.00
19827;BME280;10074;52.018;4.726;2023-03-16T01:25:49;46209.22;;;-144.79;100.00
19827;BME280;10074;52.018;4.726;2023-03-16T01:30:54;46199.19;;;-144.79;100.00
19827;BME280;10074;52.018;4.726;2023-03-16T01:36:02;46203.22;;;-144.79;100.00
19827;BME280;10074;52.018;4.726;2023-03-16T01:41:03;46199.19;;;-144.79;100.00
19827;BME280;10074;52.018;4.726;2023-03-16T01:51:15;46209.22;;;-144.79;100.00
19827;BME280;10074;52.018;4.726;2023-03-16T01:56:19;46207.22;;;-144.79;100.00
19827;BME280;10074;52.018;4.726;2023-03-16T02:01:24;46205.22;;;-144.79;100.00
19827;BME280;10074;52.018;4.726;2023-03-16T02:06:25;46207.22;;;-144.79;100.00
19827;BME280;10074;52.018;4.726;2023-03-16T02:11:27;46209.22;;;-144.79;100.00
19827;BME280;10074;52.018;4.726;2023-03-16T02:16:27;46209.22;;;-144.79;100.00
19827;BME280;10074;52.018;4.726;2023-03-16T02:21:46;46209.22;;;-144.79;100.00
19827;BME280;10074;52.018;4.726;2023-03-16T02:27:09;46209.22;;;-144.79;100.00
19827;BME280;10074;52.018;4.726;2023-03-16T02:32:12;46219.25;;;-144.79;100.00
19827;BME280;10074;52.018;4.726;2023-03-16T02:37:13;46201.22;;;-144.79;100.00
19827;BME280;10074;52.018;4.726;2023-03-16T02:42:19;46227.28;;;-144.79;100.00
19827;BME280;10074;52.018;4.726;2023-03-16T02:47:34;46213.25;;;-144.79;100.00
19827;BME280;10074;52.018;4.726;2023-03-16T02:52:37;46195.19;;;-144.79;100.00
19827;BME280;10074;52.018;4.726;2023-03-16T02:57:37;46205.22;;;-144.79;100.00
19827;BME280;10074;52.018;4.726;2023-03-16T03:02:38;46205.22;;;-144.79;100.00
19827;BME280;10074;52.018;4.726;2023-03-16T03:07:38;46201.22;;;-144.79;100.00
19827;BME280;10074;52.018;4.726;2023-03-16T03:12:39;46211.22;;;-144.79;100.00
19827;BME280;10074;52.018;4.726;2023-03-16T03:17:39;46211.22;;;-144.79;100.00
19827;BME280;10074;52.018;4.726;2023-03-16T03:22:44;46207.22;;;-144.79;100.00
19827;BME280;10074;52.018;4.726;2023-03-16T03:27:45;46197.19;;;-144.79;100.00
19827;BME280;10074;52.018;4.726;2023-03-16T03:32:47;46205.22;;;-144.79;100.00
19827;BME280;10074;52.018;4.726;2023-03-16T03:37:48;46203.22;;;-144.79;100.00
19827;BME280;10074;52.018;4.726;2023-03-16T03:42:49;46207.22;;;-144.79;100.00
19827;BME280;10074;52.018;4.726;2023-03-16T03:47:50;46209.22;;;-144.79;100.00
19827;BME280;10074;52.018;4.726;2023-03-16T03:52:50;46201.22;;;-144.79;100.00
19827;BME280;10074;52.018;4.726;2023-03-16T03:57:51;46195.19;;;-144.79;100.00
19827;BME280;10074;52.018;4.726;2023-03-16T04:02:51;46231.28;;;-144.79;100.00
19827;BME280;10074;52.018;4.726;2023-03-16T04:07:54;46213.25;;;-144.79;100.00
19827;BME280;10074;52.018;4.726;2023-03-16T04:12:57;46205.22;;;-144.79;100.00
19827;BME280;10074;52.018;4.726;2023-03-16T04:17:58;46199.19;;;-144.79;100.00
19827;BME280;10074;52.018;4.726;2023-03-16T04:22:59;46201.22;;;-144.79;100.00
19827;BME280;10074;52.018;4.726;2023-03-16T04:27:59;46197.19;;;-144.79;100.00
19827;BME280;10074;52.018;4.726;2023-03-16T04:32:59;46213.25;;;-144.79;100.00
19827;BME280;10074;52.018;4.726;2023-03-16T04:38:00;46217.25;;;-144.79;100.00
19827;BME280;10074;52.018;4.726;2023-03-16T04:43:01;46199.19;;;-144.79;100.00
19827;BME280;10074;52.018;4.726;2023-03-16T04:48:01;46207.22;;;-144.79;100.00
19827;BME280;10074;52.018;4.726;2023-03-16T04:53:03;46203.22;;;-144.79;100.00
19827;BME280;10074;52.018;4.726;2023-03-16T04:58:04;46177.16;;;-144.79;100.00
19827;BME280;10074;52.018;4.726;2023-03-16T05:03:05;46211.22;;;-144.79;100.00
19827;BME280;10074;52.018;4.726;2023-03-16T05:08:06;46205.22;;;-144.79;100.00
19827;BME280;10074;52.018;4.726;2023-03-16T05:13:06;46211.22;;;-144.79;100.00
19827;BME280;10074;52.018;4.726;2023-03-16T05:18:07;46211.22;;;-144.79;100.00
19827;BME280;10074;52.018;4.726;2023-03-16T05:23:07;46205.22;;;-144.79;100.00
19827;BME280;10074;52.018;4.726;2023-03-16T05:28:08;46205.22;;;-144.79;100.00
19827;BME280;10074;52.018;4.726;2023-03-16T05:33:09;46209.22;;;-144.79;100.00
19827;BME280;10074;52.018;4.726;2023-03-16T05:38:09;46203.22;;;-144.79;100.00
19827;BME280;10074;52.018;4.726;2023-03-16T05:43:09;46211.22;;;-144.79;100.00
19827;BME280;10074;52.018;4.726;2023-03-16T05:48:10;46199.19;;;-144.79;100.00
19827;BME280;10074;52.018;4.726;2023-03-16T05:53:10;46209.22;;;-144.79;100.00
19827;BME280;10074;52.018;4.726;2023-03-16T05:58:10;46201.22;;;-144.79;100.00
19827;BME280;10074;52.018;4.726;2023-03-16T06:03:11;46197.19;;;-144.79;100.00
19827;BME280;10074;52.018;4.726;2023-03-16T06:08:12;46203.22;;;-144.79;100.00
19827;BME280;10074;52.018;4.726;2023-03-16T06:13:12;46201.22;;;-144.79;100.00
19827;BME280;10074;52.018;4.726;2023-03-16T06:18:12;46215.25;;;-144.79;100.00
19827;BME280;10074;52.018;4.726;2023-03-16T06:23:13;46199.19;;;-144.79;100.00
19827;BME280;10074;52.018;4.726;2023-03-16T06:28:13;46199.19;;;-144.79;100.00
19827;BME280;10074;52.018;4.726;2023-03-16T06:33:14;46191.19;;;-144.79;100.00
19827;BME280;10074;52.018;4.726;2023-03-16T06:38:14;46201.22;;;-144.79;100.00
19827;BME280;10074;52.018;4.726;2023-03-16T06:43:15;46207.22;;;-144.79;100.00
19827;BME280;10074;52.018;4.726;2023-03-16T06:48:15;46191.19;;;-144.79;100.00
19827;BME280;10074;52.018;4.726;2023-03-16T06:53:15;46183.16;;;-144.79;100.00
19827;BME280;10074;52.018;4.726;2023-03-16T06:58:16;46181.16;;;-144.79;100.00
19827;BME280;10074;52.018;4.726;2023-03-16T07:03:16;46183.16;;;-144.79;100.00
19827;BME280;10074;52.018;4.726;2023-03-16T07:08:17;46175.16;;;-144.79;100.00
19827;BME280;10074;52.018;4.726;2023-03-16T07:13:17;46171.13;;;-144.79;100.00
19827;BME280;10074;52.018;4.726;2023-03-16T07:18:18;46163.13;;;-144.79;100.00
19827;BME280;10074;52.018;4.726;2023-03-16T07:23:19;46169.13;;;-144.79;100.00
19827;BME280;10074;52.018;4.726;2023-03-16T07:28:20;46163.13;;;-144.79;100.00
19827;BME280;10074;52.018;4.726;2023-03-16T07:33:20;46167.13;;;-144.79;100.00
19827;BME280;10074;52.018;4.726;2023-03-16T07:38:21;46161.09;;;-144.79;100.00
19827;BME280;10074;52.018;4.726;2023-03-16T07:43:21;46173.13;;;-144.79;100.00
19827;BME280;10074;52.018;4.726;2023-03-16T07:48:22;46175.16;;;-144.79;100.00
19827;BME280;10074;52.018;4.726;2023-03-16T07:53:22;46185.16;;;-144.79;100.00
19827;BME280;10074;52.018;4.726;2023-03-16T07:58:22;46189.19;;;-144.79;100.00
19827;BME280;10074;52.018;4.726;2023-03-16T08:03:27;46185.16;;;-144.79;100.00
19827;BME280;10074;52.018;4.726;2023-03-16T08:08:28;46183.16;;;-144.79;100.00
19827;BME280;10074;52.018;4.726;2023-03-16T08:13:28;46191.19;;;-144.79;100.00
19827;BME280;10074;52.018;4.726;2023-03-16T08:18:29;46187.19;;;-144.79;100.00
19827;BME280;10074;52.018;4.726;2023-03-16T08:23:30;46193.19;;;-144.79;100.00
19827;BME280;10074;52.018;4.726;2023-03-16T08:28:32;46189.19;;;-144.79;100.00
19827;BME280;10074;52.018;4.726;2023-03-16T08:33:33;46193.19;;;-144.79;100.00
19827;BME280;10074;52.018;4.726;2023-03-16T08:38:35;46203.22;;;-144.79;100.00
19827;BME280;10074;52.018;4.726;2023-03-16T08:43:35;46199.19;;;-144.79;100.00
19827;BME280;10074;52.018;4.726;2023-03-16T08:48:36;46195.19;;;-144.79;100.00
19827;BME280;10074;52.018;4.726;2023-03-16T08:53:36;46191.19;;;-144.79;100.00
19827;BME280;10074;52.018;4.726;2023-03-16T08:58:37;46195.19;;;-144.79;100.00
19827;BME280;10074;52.018;4.726;2023-03-16T09:03:39;46201.22;;;-144.79;100.00
19827;BME280;10074;52.018;4.726;2023-03-16T09:08:44;46199.19;;;-144.79;100.00
19827;BME280;10074;52.018;4.726;2023-03-16T09:13:45;46195.19;;;-144.79;100.00
19827;BME280;10074;52.018;4.726;2023-03-16T09:18:46;46213.25;;;-144.79;100.00
19827;BME280;10074;52.018;4.726;2023-03-16T09:23:46;46197.19;;;-144.79;100.00
19827;BME280;10074;52.018;4.726;2023-03-16T09:28:47;46199.19;;;-144.79;100.00
19827;BME280;10074;52.018;4.726;2023-03-16T09:33:48;46199.19;;;-144.79;100.00
19827;BME280;10074;52.018;4.726;2023-03-16T09:38:48;46179.16;;;-144.79;100.00
19827;BME280;10074;52.018;4.726;2023-03-16T09:44:04;46195.19;;;-144.79;100.00
19827;BME280;10074;52.018;4.726;2023-03-16T09:49:10;46191.19;;;-144.79;100.00
19827;BME280;10074;52.018;4.726;2023-03-16T09:54:35;46195.19;;;-144.79;100.00
19827;BME280;10074;52.018;4.726;2023-03-16T09:59:38;46215.25;;;-144.79;100.00
19827;BME280;10074;52.018;4.726;2023-03-16T10:09:57;46193.19;;;-144.79;100.00
19827;BME280;10074;52.018;4.726;2023-03-16T10:15:10;46195.19;;;-144.79;100.00
19827;BME280;10074;52.018;4.726;2023-03-16T10:20:18;46191.19;;;-144.79;100.00
19827;BME280;10074;52.018;4.726;2023-03-16T10:30:27;46167.13;;;-144.79;100.00
19827;BME280;10074;52.018;4.726;2023-03-16T10:35:50;46195.19;;;-144.79;100.00
19827;BME280;10074;52.018;4.726;2023-03-16T10:40:53;46191.19;;;-144.79;100.00
19827;BME280;10074;52.018;4.726;2023-03-16T10:45:58;46191.19;;;-144.79;100.00
19827;BME280;10074;52.018;4.726;2023-03-16T10:51:06;46131.03;;;-144.79;100.00
19827;BME280;10074;52.018;4.726;2023-03-16T10:56:10;46163.13;;;-144.79;100.00
19827;BME280;10074;52.018;4.726;2023-03-16T11:01:23;46163.13;;;-144.79;100.00
19827;BME280;10074;52.018;4.726;2023-03-16T11:06:30;46171.13;;;-144.79;100.00
19827;BME280;10074;52.018;4.726;2023-03-16T11:11:32;46173.13;;;-144.79;100.00
19827;BME280;10074;52.018;4.726;2023-03-16T11:16:46;46181.16;;;-144.79;100.00
19827;BME280;10074;52.018;4.726;2023-03-16T11:21:58;46187.19;;;-144.79;100.00
19827;BME280;10074;52.018;4.726;2023-03-16T11:27:03;46195.19;;;-144.79;100.00
19827;BME280;10074;52.018;4.726;2023-03-16T11:32:19;46195.19;;;-144.79;100.00
19827;BME280;10074;52.018;4.726;2023-03-16T11:37:27;46187.19;;;-144.79;100.00
19827;BME280;10074;52.018;4.726;2023-03-16T12:03:53;46189.19;;;-144.79;100.00
19827;BME280;10074;52.018;4.726;2023-03-16T12:14:26;46177.16;;;-144.79;100.00
19827;BME280;10074;52.018;4.726;2023-03-16T12:19:48;46181.16;;;-144.79;100.00
19827;BME280;10074;52.018;4.726;2023-03-16T12:24:51;46191.19;;;-144.79;100.00
19827;BME280;10074;52.018;4.726;2023-03-16T12:35:30;46181.16;;;-144.79;100.00
19827;BME280;10074;52.018;4.726;2023-03-16T12:40:53;46187.19;;;-144.79;100.00
19827;BME280;10074;52.018;4.726;2023-03-16T12:46:10;46177.16;;;-144.79;100.00
19827;BME280;10074;52.018;4.726;2023-03-16T12:51:13;46165.13;;;-144.79;100.00
19827;BME280;10074;52.018;4.726;2023-03-16T12:56:42;46167.13;;;-144.79;100.00
19827;BME280;10074;52.018;4.726;2023-03-16T13:01:44;46175.16;;;-144.79;100.00
19827;BME280;10074;52.018;4.726;2023-03-16T13:07:00;46183.16;;;-144.79;100.00
19827;BME280;10074;52.018;4.726;2023-03-16T13:12:02;46155.09;;;-144.79;100.00
19827;BME280;10074;52.018;4.726;2023-03-16T13:22:30;46171.13;;;-144.79;100.00
19827;BME280;10074;52.018;4.726;2023-03-16T13:27:32;46167.13;;;-144.79;100.00
19827;BME280;10074;52.018;4.726;2023-03-16T13:32:34;46191.19;;;-144.79;100.00
19827;BME280;10074;52.018;4.726;2023-03-16T13:37:35;46165.13;;;-144.79;100.00
19827;BME280;10074;52.018;4.726;2023-03-16T13:42:35;46165.13;;;-144.79;100.00
19827;BME280;10074;52.018;4.726;2023-03-16T13:47:36;46155.09;;;-144.79;100.00
19827;BME280;10074;52.018;4.726;2023-03-16T13:52:37;46167.13;;;-144.79;100.00
19827;BME280;10074;52.018;4.726;2023-03-16T13:57:39;46163.13;;;-144.79;100.00
19827;BME280;10074;52.018;4.726;2023-03-16T14:02:41;46191.19;;;-144.79;100.00
19827;BME280;10074;52.018;4.726;2023-03-16T14:07:45;46171.13;;;-144.79;100.00
19827;BME280;10074;52.018;4.726;2023-03-16T14:12:53;46183.16;;;-144.79;100.00
19827;BME280;10074;52.018;4.726;2023-03-16T14:18:07;46195.19;;;-144.79;100.00
19827;BME280;10074;52.018;4.726;2023-03-16T14:23:20;46167.13;;;-144.79;100.00
19827;BME280;10074;52.018;4.726;2023-03-16T14:28:27;46173.13;;;-144.79;100.00
19827;BME280;10074;52.018;4.726;2023-03-16T14:33:32;46151.09;;;-144.79;100.00
19827;BME280;10074;52.018;4.726;2023-03-16T14:38:36;46163.13;;;-144.79;100.00
19827;BME280;10074;52.018;4.726;2023-03-16T14:43:49;46177.16;;;-144.79;100.00
19827;BME280;10074;52.018;4.726;2023-03-16T14:48:50;46169.13;;;-144.79;100.00
19827;BME280;10074;52.018;4.726;2023-03-16T14:53:51;46191.19;;;-144.79;100.00
19827;BME280;10074;52.018;4.726;2023-03-16T14:58:51;46161.09;;;-144.79;100.00
19827;BME280;10074;52.018;4.726;2023-03-16T15:03:51;46163.13;;;-144.79;100.00
19827;BME280;10074;52.018;4.726;2023-03-16T15:08:52;46191.19;;;-144.79;100.00
19827;BME280;10074;52.018;4.726;2023-03-16T15:13:53;46187.19;;;-144.79;100.00
19827;BME280;10074;52.018;4.726;2023-03-16T15:19:03;46187.19;;;-144.79;100.00
19827;BME280;10074;52.018;4.726;2023-03-16T15:24:03;46167.13;;;-144.79;100.00
19827;BME280;10074;52.018;4.726;2023-03-16T15:29:05;46191.19;;;-144.79;100.00
19827;BME280;10074;52.018;4.726;2023-03-16T15:34:05;46195.19;;;-144.79;100.00
19827;BME280;10074;52.018;4.726;2023-03-16T15:39:08;46173.13;;;-144.79;100.00
19827;BME280;10074;52.018;4.726;2023-03-16T15:44:11;46187.19;;;-144.79;100.00
19827;BME280;10074;52.018;4.726;2023-03-16T15:49:11;46187.19;;;-144.79;100.00
19827;BME280;10074;52.018;4.726;2023-03-16T15:54:12;46191.19;;;-144.79;100.00
19827;BME280;10074;52.018;4.726;2023-03-16T15:59:14;46195.19;;;-144.79;100.00
19827;BME280;10074;52.018;4.726;2023-03-16T16:04:20;46205.22;;;-144.79;100.00
19827;BME280;10074;52.018;4.726;2023-03-16T16:09:23;46187.19;;;-144.79;100.00
19827;BME280;10074;52.018;4.726;2023-03-16T16:14:25;46187.19;;;-144.79;100.00
19827;BME280;10074;52.018;4.726;2023-03-16T16:19:25;46199.19;;;-144.79;100.00
19827;BME280;10074;52.018;4.726;2023-03-16T16:24:26;46187.19;;;-144.79;100.00
19827;BME280;10074;52.018;4.726;2023-03-16T16:29:29;46199.19;;;-144.79;100.00
19827;BME280;10074;52.018;4.726;2023-03-16T16:34:31;46193.19;;;-144.79;100.00
19827;BME280;10074;52.018;4.726;2023-03-16T16:39:31;46199.19;;;-144.79;100.00
19827;BME280;10074;52.018;4.726;2023-03-16T16:44:31;46189.19;;;-144.79;100.00
19827;BME280;10074;52.018;4.726;2023-03-16T16:49:31;46201.22;;;-144.79;100.00
19827;BME280;10074;52.018;4.726;2023-03-16T16:54:33;46195.19;;;-144.79;100.00
19827;BME280;10074;52.018;4.726;2023-03-16T16:59:36;46211.22;;;-144.79;100.00
19827;BME280;10074;52.018;4.726;2023-03-16T17:04:36;46163.13;;;-144.79;100.00
19827;BME280;10074;52.018;4.726;2023-03-16T17:09:37;46193.19;;;-144.79;100.00
19827;BME280;10074;52.018;4.726;2023-03-16T17:14:38;46203.22;;;-144.79;100.00
19827;BME280;10074;52.018;4.726;2023-03-16T17:19:38;46221.25;;;-144.79;100.00
19827;BME280;10074;52.018;4.726;2023-03-16T17:24:39;46195.19;;;-144.79;100.00
19827;BME280;10074;52.018;4.726;2023-03-16T17:29:39;46213.25;;;-144.79;100.00
19827;BME280;10074;52.018;4.726;2023-03-16T17:34:41;46189.19;;;-144.79;100.00
19827;BME280;10074;52.018;4.726;2023-03-16T17:39:42;46199.19;;;-144.79;100.00
19827;BME280;10074;52.018;4.726;2023-03-16T17:44:45;46215.25;;;-144.79;100.00
19827;BME280;10074;52.018;4.726;2023-03-16T17:49:46;46189.19;;;-144.79;100.00
19827;BME280;10074;52.018;4.726;2023-03-16T17:54:49;46205.22;;;-144.79;100.00
19827;BME280;10074;52.018;4.726;2023-03-16T17:59:51;46193.19;;;-144.79;100.00
19827;BME280;10074;52.018;4.726;2023-03-16T18:04:51;46193.19;;;-144.79;100.00
19827;BME280;10074;52.018;4.726;2023-03-16T18:09:51;46195.19;;;-144.79;100.00
19827;BME280;10074;52.018;4.726;2023-03-16T18:14:52;46201.22;;;-144.79;100.00
19827;BME280;10074;52.018;4.726;2023-03-16T18:19:57;46217.25;;;-144.79;100.00
19827;BME280;10074;52.018;4.726;2023-03-16T18:24:58;46203.22;;;-144.79;100.00
19827;BME280;10074;52.018;4.726;2023-03-16T18:30:00;46199.19;;;-144.79;100.00
19827;BME280;10074;52.018;4.726;2023-03-16T18:35:00;46189.19;;;-144.79;100.00
19827;BME280;10074;52.018;4.726;2023-03-16T18:40:01;46203.22;;;-144.79;100.00
19827;BME280;10074;52.018;4.726;2023-03-16T18:45:01;46191.19;;;-144.79;100.00
19827;BME280;10074;52.018;4.726;2023-03-16T18:50:03;46207.22;;;-144.79;100.00
19827;BME280;10074;52.018;4.726;2023-03-16T18:55:11;46191.19;;;-144.79;100.00
19827;BME280;10074;52.018;4.726;2023-03-16T19:00:14;46203.22;;;-144.79;100.00
19827;BME280;10074;52.018;4.726;2023-03-16T19:05:18;46193.19;;;-144.79;100.00
19827;BME280;10074;52.018;4.726;2023-03-16T19:10:33;46199.19;;;-144.79;100.00
19827;BME280;10074;52.018;4.726;2023-03-16T19:15:35;46195.19;;;-144.79;100.00
19827;BME280;10074;52.018;4.726;2023-03-16T19:20:40;46207.22;;;-144.79;100.00
19827;BME280;10074;52.018;4.726;2023-03-16T19:25:42;46187.19;;;-144.79;100.00
19827;BME280;10074;52.018;4.726;2023-03-16T19:30:42;46207.22;;;-144.79;100.00
19827;BME280;10074;52.018;4.726;2023-03-16T19:35:43;46209.22;;;-144.79;100.00
19827;BME280;10074;52.018;4.726;2023-03-16T19:40:43;46193.19;;;-144.79;100.00
19827;BME280;10074;52.018;4.726;2023-03-16T19:45:44;46177.16;;;-144.79;100.00
19827;BME280;10074;52.018;4.726;2023-03-16T19:50:48;46193.19;;;-144.79;100.00
19827;BME280;10074;52.018;4.726;2023-03-16T19:55:51;46187.19;;;-144.79;100.00
19827;BME280;10074;52.018;4.726;2023-03-16T20:00:52;46213.25;;;-144.79;100.00
19827;BME280;10074;52.018;4.726;2023-03-16T20:05:52;46207.22;;;-144.79;100.00
19827;BME280;10074;52.018;4.726;2023-03-16T20:10:57;46211.22;;;-144.79;100.00
19827;BME280;10074;52.018;4.726;2023-03-16T20:15:58;46211.22;;;-144.79;100.00
19827;BME280;10074;52.018;4.726;2023-03-16T20:20:59;46205.22;;;-144.79;100.00
19827;BME280;10074;52.018;4.726;2023-03-16T20:25:59;46207.22;;;-144.79;100.00
19827;BME280;10074;52.018;4.726;2023-03-16T20:31:01;46197.19;;;-144.79;100.00
19827;BME280;10074;52.018;4.726;2023-03-16T20:36:01;46205.22;;;-144.79;100.00
19827;BME280;10074;52.018;4.726;2023-03-16T20:41:01;46207.22;;;-144.79;100.00
19827;BME280;10074;52.018;4.726;2023-03-16T20:46:03;46205.22;;;-144.79;100.00
19827;BME280;10074;52.018;4.726;2023-03-16T20:51:04;46189.19;;;-144.79;100.00
19827;BME280;10074;52.018;4.726;2023-03-16T20:56:04;46219.25;;;-144.79;100.00
19827;BME280;10074;52.018;4.726;2023-03-16T21:01:10;46193.19;;;-144.79;100.00
19827;BME280;10074;52.018;4.726;2023-03-16T21:06:25;46203.22;;;-144.79;100.00
19827;BME280;10074;52.018;4.726;2023-03-16T21:11:31;46199.19;;;-144.79;100.00
19827;BME280;10074;52.018;4.726;2023-03-16T21:16:33;46209.22;;;-144.79;100.00
19827;BME280;10074;52.018;4.726;2023-03-16T21:21:33;46203.22;;;-144.79;100.00
19827;BME280;10074;52.018;4.726;2023-03-16T21:26:34;46227.28;;;-144.79;100.00
19827;BME280;10074;52.018;4.726;2023-03-16T21:31:35;46199.19;;;-144.79;100.00
19827;BME280;10074;52.018;4.726;2023-03-16T21:36:35;46205.22;;;-144.79;100.00
19827;BME280;10074;52.018;4.726;2023-03-16T21:41:35;46195.19;;;-144.79;100.00
19827;BME280;10074;52.018;4.726;2023-03-16T21:46:37;46197.19;;;-144.79;100.00
19827;BME280;10074;52.018;4.726;2023-03-16T21:51:38;46203.22;;;-144.79;100.00
19827;BME280;10074;52.018;4.726;2023-03-16T21:56:42;46195.19;;;-144.79;100.00
19827;BME280;10074;52.018;4.726;2023-03-16T22:01:43;46197.19;;;-144.79;100.00
19827;BME280;10074;52.018;4.726;2023-03-16T22:06:43;46183.16;;;-144.79;100.00
19827;BME280;10074;52.018;4.726;2023-03-16T22:11:44;46199.19;;;-144.79;100.00
19827;BME280;10074;52.018;4.726;2023-03-16T22:16:45;46205.22;;;-144.79;100.00
19827;BME280;10074;52.018;4.726;2023-03-16T22:21:45;46195.19;;;-144.79;100.00
19827;BME280;10074;52.018;4.726;2023-03-16T22:26:46;46191.19;;;-144.79;100.00
19827;BME280;10074;52.018;4.726;2023-03-16T22:31:49;46207.22;;;-144.79;100.00
19827;BME280;10074;52.018;4.726;2023-03-16T22:36:51;46195.19;;;-144.79;100.00
19827;BME280;10074;52.018;4.726;2023-03-16T22:41:51;46203.22;;;-144.79;100.00
19827;BME280;10074;52.018;4.726;2023-03-16T22:46:51;46227.28;;;-144.79;100.00
19827;BME280;10074;52.018;4.726;2023-03-16T22:51:54;46199.19;;;-144.79;100.00
19827;BME280;10074;52.018;4.726;2023-03-16T22:56:55;46195.19;;;-144.79;100.00
19827;BME280;10074;52.018;4.726;2023-03-16T23:01:56;46203.22;;;-144.79;100.00
19827;BME280;10074;52.018;4.726;2023-03-16T23:06:57;46195.19;;;-144.79;100.00
19827;BME280;10074;52.018;4.726;2023-03-16T23:11:58;46211.22;;;-144.79;100.00
19827;BME280;10074;52.018;4.726;2023-03-16T23:17:00;46199.19;;;-144.79;100.00
19827;BME280;10074;52.018;4.726;2023-03-16T23:22:03;46199.19;;;-144.79;100.00
19827;BME280;10074;52.018;4.726;2023-03-16T23:27:05;46217.25;;;-144.79;100.00
19827;BME280;10074;52.018;4.726;2023-03-16T23:32:14;46195.19;;;-144.79;100.00
19827;BME280;10074;52.018;4.726;2023-03-16T23:37:16;46183.16;;;-144.79;100.00
19827;BME280;10074;52.018;4.726;2023-03-16T23:42:17;46207.22;;;-144.79;100.00
19827;BME280;10074;52.018;4.726;2023-03-16T23:47:17;46205.22;;;-144.79;100.00
19827;BME280;10074;52.018;4.726;2023-03-16T23:52:18;46205.22;;;-144.79;100.00
19827;BME280;10074;52.018;4.726;2023-03-16T23:57:18;46203.22;;;-144.79;100.00
